Impacts METAR Board
IDs:

KCLT - Charlotte/Douglas In, NC, US

Updated at: 2000 UTC 24 Apr 2018
Potential Impact None Slight Moderate High
Time 24/08Z 24/09Z 24/10Z 24/11Z 24/12Z 24/13Z 24/14Z 24/15Z 24/16Z 24/17Z 24/18Z 24/19Z 24/20Z
Temp58 58 59 60 60 60 61 62 64 66 69 71 71
Dewpt57 57 58 58 59 60 61 61 62 63 63 63 62
Altim29.94 29.95 29.91 29.92 29.92 29.91 29.91 29.90 29.88 29.86 29.83 29.80 29.77
VIS4 6 10 10 1.5 2 1.75 4 4 10 10 10 10
CIG8 5 6 8 6 5 5 5 5 7 12 80 21
CoverOVCOVCOVCOVCOVCOVCOVCOVCOVCOVCOVCBKNBKN
FltCatIFRIFRIFRIFRIFRIFRIFRIFRIFRIFRMVFRVFRMVFR
WXBRBR-RA--BR-RA BRBRBRBR--------
WDir80804090809090110100100807080
WSpd13 10 7 7 8 9 10 8 10 10 11 10 10
WGst21 -- 18 -- -- -- 17 -- 17 -- -- -- --
Raw hourly METARs
KCLT 240752Z 08013G21KT 4SM BR OVC008 14/14 A2994 RMK AO2 RAE32 SLP136 P0000 T01440139
KCLT 240852Z 08010KT 6SM BR OVC005 14/14 A2995 RMK AO2 RAB0757E07 SLP138 P0000 60003 T01440139 55007
KCLT 240952Z 04007G18KT 010V080 10SM -RA OVC006 15/14 A2991 RMK AO2 RAB45 CIG 005V009 SLP124 P0000 T01500144
KCLT 241052Z 09007KT 10SM OVC008 16/14 A2992 RMK AO2 RAE19 SLP129 P0000 T01560144
KCLT 241152Z 08008KT 060V130 1 1/2SM R18C/6000VP6000FT BR OVC006 16/15 A2992 RMK AO2 SLP127 60003 70208 T01560150 10156 20139 56010
KCLT 241256Z 09009KT 2SM -RA BR OVC005 16/16 A2991 RMK AO2 RAB54 P0000 T01560156
KCLT 241352Z 09010G17KT 1 3/4SM R18C/6000VP6000FT BR OVC005 16/16 A2991 RMK AO2 RAB1254E39 SLP125 P0000 T01610161
KCLT 241459Z 11008KT 4SM BR OVC005 17/16 A2990 RMK AO2 T01670161
KCLT 241552Z 10010G17KT 4SM BR OVC005 18/17 A2988 RMK AO2 SLP115 T01780167
KCLT 241652Z 10010KT 10SM BKN007 OVC014 19/17 A2986 RMK AO2 SLP107 T01890172
KCLT 241752Z 08011KT 10SM BKN012 BKN025 OVC075 21/17 A2983 RMK AO2 RAB08E36 SLP097 P0001 60001 T02060172 10206 20156 58024
KCLT 241905Z 07010KT 10SM FEW016 SCT025 BKN080 22/17 A2980 RMK AO2 T02170172
KCLT 241952Z 08010KT 10SM BKN021 BKN031 BKN100 22/17 A2977 RMK AO2 LTG DSNT NW SLP076 T02170167



Page loaded:  20:49 UTC  |   01:49 PM Pacific  |   02:49 PM Mountain  |   03:49 PM Central  |   04:49 PM Eastern

 

ADVISORIES

FORECASTS

FORECASTS

OBSERVATIONS

USER TOOLS

ABOUT US